createdAt,value
2023-03-26T00:01:37.507Z,10.15
2023-03-26T00:04:08.175Z,9.60
2023-03-26T00:06:39.573Z,12.93
2023-03-26T00:09:10.456Z,8.80
2023-03-26T00:11:38.908Z,10.68
2023-03-26T00:14:07.429Z,11.32
2023-03-26T00:16:37.242Z,11.32
2023-03-26T00:19:05.957Z,9.02
2023-03-26T00:21:34.463Z,6.57
2023-03-26T00:24:05.372Z,13.55
2023-03-26T00:26:34.748Z,9.70
2023-03-26T00:29:04.170Z,12.02
2023-03-26T00:31:32.959Z,10.32
2023-03-26T00:34:05.558Z,8.38
2023-03-26T00:36:35.832Z,15.77
2023-03-26T00:39:06.263Z,10.13
2023-03-26T00:41:37.267Z,13.85
2023-03-26T00:44:05.864Z,11.65
2023-03-26T00:46:34.383Z,11.32
2023-03-26T00:49:04.256Z,11.70
2023-03-26T00:51:33.901Z,16.42
2023-03-26T00:54:02.398Z,16.27
2023-03-26T00:56:30.965Z,11.75
2023-03-26T00:59:00.229Z,11.48
2023-03-26T01:01:31.527Z,13.35
2023-03-26T01:04:28.404Z,17.95
2023-03-26T01:06:59.980Z,12.57
2023-03-26T01:09:34.665Z,9.60
2023-03-26T01:14:32.872Z,5.07
2023-03-26T01:17:03.592Z,10.38
2023-03-26T01:19:39.726Z,5.55
2023-03-26T01:22:11.188Z,8.52
2023-03-26T01:24:41.485Z,9.45
2023-03-26T01:27:33.588Z,16.48
2023-03-26T01:30:11.039Z,11.30
2023-03-26T01:32:49.645Z,8.50
2023-03-26T01:35:28.106Z,8.80
2023-03-26T01:38:11.822Z,14.20
2023-03-26T01:40:47.009Z,10.30
2023-03-26T01:43:26.167Z,8.23
2023-03-26T01:45:55.346Z,8.10
2023-03-26T01:48:31.544Z,9.88
2023-03-26T01:51:00.120Z,5.70
2023-03-26T01:53:28.694Z,5.05
2023-03-26T01:56:07.204Z,5.82
2023-03-26T01:58:42.622Z,7.50
2023-03-26T02:01:27.866Z,10.55
2023-03-26T02:04:02.815Z,10.05
2023-03-26T02:06:40.747Z,6.10
2023-03-26T02:09:12.551Z,9.32
2023-03-26T02:11:42.653Z,6.10
2023-03-26T02:14:11.826Z,6.60
2023-03-26T02:16:40.274Z,4.00
2023-03-26T02:19:15.428Z,7.40
2023-03-26T02:21:43.927Z,5.60
2023-03-26T02:24:12.363Z,5.78
2023-03-26T02:26:42.144Z,5.00
2023-03-26T02:29:10.974Z,5.13
2023-03-26T02:31:39.407Z,6.00
2023-03-26T02:34:07.894Z,8.05
2023-03-26T02:36:36.412Z,6.43
2023-03-26T02:39:05.372Z,6.28
2023-03-26T02:41:34.366Z,6.50
2023-03-26T02:44:04.529Z,5.47
2023-03-26T02:46:33.544Z,7.18
2023-03-26T02:49:02.056Z,4.90
2023-03-26T02:51:34.808Z,4.97
2023-03-26T02:54:03.464Z,7.93
2023-03-26T02:56:31.879Z,8.40
2023-03-26T02:59:00.361Z,7.90
2023-03-26T03:01:30.928Z,7.15
2023-03-26T03:04:01.492Z,6.20
2023-03-26T03:06:30.956Z,7.28
2023-03-26T03:08:59.547Z,7.35
2023-03-26T03:11:27.959Z,8.10
2023-03-26T03:13:56.339Z,9.20
2023-03-26T03:16:24.913Z,5.68
2023-03-26T03:18:57.794Z,6.05
2023-03-26T03:21:28.779Z,8.13
2023-03-26T03:24:00.008Z,7.35
2023-03-26T03:26:30.062Z,7.30
2023-03-26T03:28:59.563Z,7.40
2023-03-26T03:31:28.575Z,8.02
2023-03-26T03:33:58.427Z,8.63
2023-03-26T03:36:30.372Z,5.60
2023-03-26T03:39:02.768Z,7.80
2023-03-26T03:41:31.409Z,9.38
2023-03-26T03:44:01.577Z,9.75
2023-03-26T03:46:30.299Z,10.02
2023-03-26T03:49:00.366Z,7.38
2023-03-26T03:51:28.967Z,8.30
2023-03-26T03:53:57.502Z,10.57
2023-03-26T03:56:26.226Z,8.57
2023-03-26T03:58:54.678Z,8.98
2023-03-26T04:01:23.545Z,9.15
2023-03-26T04:03:52.326Z,9.35
2023-03-26T04:06:22.179Z,7.90
2023-03-26T04:08:50.616Z,6.07
2023-03-26T04:11:19.265Z,9.75
2023-03-26T04:13:47.778Z,9.88
2023-03-26T04:16:17.508Z,8.57
2023-03-26T04:18:46.426Z,8.88
2023-03-26T04:21:15.992Z,9.45
2023-03-26T04:23:46.309Z,6.45
2023-03-26T04:26:18.738Z,8.55
2023-03-26T04:28:53.302Z,8.77
2023-03-26T04:31:24.655Z,8.20
2023-03-26T04:33:55.899Z,8.25
2023-03-26T04:36:28.532Z,6.80
2023-03-26T04:39:02.395Z,9.98
2023-03-26T04:41:32.365Z,7.35
2023-03-26T04:44:01.878Z,7.93
2023-03-26T04:46:33.460Z,7.63
2023-03-26T04:49:02.791Z,10.30
2023-03-26T04:51:38.670Z,9.50
2023-03-26T04:54:09.457Z,8.93
2023-03-26T04:56:45.117Z,5.35
2023-03-26T04:59:17.589Z,8.90
2023-03-26T05:01:46.702Z,9.55
2023-03-26T05:04:15.175Z,6.28
2023-03-26T05:06:43.649Z,7.43
2023-03-26T05:09:14.391Z,6.90
2023-03-26T05:11:42.879Z,8.88
2023-03-26T05:14:11.283Z,7.45
2023-03-26T05:16:41.434Z,7.13
2023-03-26T05:19:09.994Z,8.65
2023-03-26T05:21:38.517Z,7.63
2023-03-26T05:24:07.750Z,8.88
2023-03-26T05:26:38.175Z,6.80
2023-03-26T05:29:06.629Z,8.63
2023-03-26T05:31:35.048Z,8.90
2023-03-26T05:34:03.543Z,7.50
2023-03-26T05:36:31.929Z,11.18
2023-03-26T05:39:00.357Z,6.35
2023-03-26T05:41:28.740Z,8.57
2023-03-26T05:43:58.505Z,9.55
2023-03-26T05:46:27.280Z,7.07
2023-03-26T05:48:55.834Z,8.82
2023-03-26T05:51:24.500Z,8.88
2023-03-26T05:53:52.937Z,8.13
2023-03-26T05:56:21.356Z,12.07
2023-03-26T05:58:51.492Z,6.65
2023-03-26T06:01:22.672Z,9.50
2023-03-26T06:03:51.487Z,7.75
2023-03-26T06:06:21.795Z,8.18
2023-03-26T06:09:02.382Z,8.10
2023-03-26T06:11:32.213Z,11.48
2023-03-26T06:14:00.776Z,6.85
2023-03-26T06:16:30.600Z,8.93
2023-03-26T06:18:59.585Z,10.32
2023-03-26T06:21:28.851Z,12.70
2023-03-26T06:23:57.509Z,8.15
2023-03-26T06:26:25.969Z,9.77
2023-03-26T06:28:54.446Z,7.97
2023-03-26T06:31:22.852Z,11.25
2023-03-26T06:33:53.263Z,5.85
2023-03-26T06:36:21.709Z,7.25
2023-03-26T06:38:50.093Z,9.85
2023-03-26T06:41:18.783Z,8.00
2023-03-26T06:43:47.161Z,9.73
2023-03-26T06:46:15.562Z,8.98
2023-03-26T06:48:44.009Z,9.68
2023-03-26T06:51:13.764Z,8.63
2023-03-26T06:53:42.573Z,7.43
2023-03-26T06:56:11.582Z,10.02
2023-03-26T06:58:40.042Z,10.73
2023-03-26T07:01:08.591Z,9.75
2023-03-26T07:03:37.138Z,9.88
2023-03-26T07:06:06.159Z,10.85
2023-03-26T07:08:35.969Z,11.13
2023-03-26T07:11:04.523Z,9.52
2023-03-26T07:13:32.925Z,7.53
2023-03-26T07:16:01.456Z,11.57
2023-03-26T07:18:29.969Z,7.35
2023-03-26T07:20:58.956Z,9.48
2023-03-26T07:23:27.912Z,7.38
2023-03-26T07:25:58.454Z,8.13
2023-03-26T07:28:36.191Z,7.82
2023-03-26T07:31:16.756Z,7.10
2023-03-26T07:33:50.568Z,6.75
2023-03-26T07:36:26.676Z,10.05
2023-03-26T07:39:12.719Z,7.95
2023-03-26T07:41:50.888Z,5.78
2023-03-26T07:44:40.961Z,7.53
2023-03-26T07:47:25.562Z,6.32
2023-03-26T07:49:57.932Z,6.90
2023-03-26T07:52:27.569Z,8.10
2023-03-26T07:54:56.712Z,8.57
2023-03-26T07:57:40.109Z,6.60
2023-03-26T08:00:16.106Z,7.22
2023-03-26T08:03:09.969Z,6.40
2023-03-26T08:05:47.345Z,8.82
2023-03-26T08:08:20.760Z,8.32
2023-03-26T08:11:03.782Z,6.37
2023-03-26T08:13:45.090Z,7.97
2023-03-26T08:16:19.427Z,10.25
2023-03-26T08:21:25.542Z,8.80
2023-03-26T08:24:01.980Z,11.43
2023-03-26T08:26:38.633Z,9.60
2023-03-26T08:29:19.233Z,8.43
2023-03-26T08:31:50.061Z,6.53
2023-03-26T08:34:18.541Z,10.80
2023-03-26T08:36:47.625Z,13.63
2023-03-26T08:39:16.979Z,6.35
2023-03-26T08:42:16.995Z,10.48
2023-03-26T08:45:35.397Z,9.30
2023-03-26T08:48:43.627Z,12.95
2023-03-26T08:51:47.504Z,13.23
2023-03-26T08:54:32.616Z,9.00
2023-03-26T08:57:25.344Z,12.48
2023-03-26T09:00:13.605Z,11.23
2023-03-26T09:03:18.356Z,10.75
2023-03-26T09:06:11.017Z,9.73
2023-03-26T09:09:18.911Z,8.23
2023-03-26T09:12:15.749Z,10.18
2023-03-26T09:15:07.472Z,14.55
2023-03-26T09:18:08.617Z,11.15
2023-03-26T09:21:25.570Z,13.18
2023-03-26T09:24:25.407Z,10.10
2023-03-26T09:27:05.656Z,9.52
2023-03-26T09:29:56.901Z,11.30
2023-03-26T09:32:47.234Z,9.88
2023-03-26T09:35:39.699Z,9.88
2023-03-26T09:38:19.035Z,11.02
2023-03-26T09:40:56.934Z,11.93
2023-03-26T09:44:08.583Z,10.15
2023-03-26T09:46:48.408Z,7.47
2023-03-26T09:49:43.177Z,6.47
2023-03-26T09:52:50.900Z,16.85
2023-03-26T09:55:46.517Z,9.85
2023-03-26T09:58:47.355Z,7.93
2023-03-26T10:01:25.156Z,9.93
2023-03-26T10:04:02.628Z,7.18
2023-03-26T10:06:51.897Z,8.95
2023-03-26T10:09:37.221Z,9.32
2023-03-26T10:12:16.819Z,8.40
2023-03-26T10:14:55.843Z,9.40
2023-03-26T10:17:44.263Z,12.27
2023-03-26T10:20:35.385Z,8.98
2023-03-26T10:23:23.503Z,11.07
2023-03-26T10:26:07.289Z,8.02
2023-03-26T10:28:54.417Z,11.47
2023-03-26T10:31:39.345Z,11.23
2023-03-26T10:34:29.455Z,9.48
2023-03-26T10:37:07.873Z,11.02
2023-03-26T10:39:51.873Z,10.60
2023-03-26T10:42:37.276Z,24.45
2023-03-26T10:45:22.888Z,12.05
2023-03-26T10:48:04.236Z,12.30
2023-03-26T10:51:23.713Z,11.57
2023-03-26T10:53:58.141Z,11.93
2023-03-26T10:56:30.850Z,13.73
2023-03-26T10:59:08.441Z,14.40
2023-03-26T11:01:43.441Z,10.70
2023-03-26T11:04:34.267Z,11.27
2023-03-26T11:07:09.245Z,17.23
2023-03-26T11:09:45.538Z,16.00
2023-03-26T11:12:25.597Z,14.07
2023-03-26T11:15:13.606Z,13.55
2023-03-26T11:17:53.142Z,15.73
2023-03-26T11:20:34.344Z,12.88
2023-03-26T11:23:20.787Z,15.45
2023-03-26T11:26:05.997Z,15.20
2023-03-26T11:32:04.175Z,12.30
2023-03-26T11:34:36.777Z,12.23
2023-03-26T11:34:38.132Z,10.93
2023-03-26T11:37:15.357Z,11.63
2023-03-26T11:39:50.484Z,12.10
2023-03-26T11:42:22.896Z,13.63
2023-03-26T11:44:56.524Z,10.20
2023-03-26T11:47:33.303Z,10.82
2023-03-26T11:50:04.588Z,10.20
2023-03-26T11:52:34.453Z,15.25
2023-03-26T11:55:03.321Z,13.23
2023-03-26T11:57:35.785Z,11.40
2023-03-26T12:00:15.859Z,12.85
2023-03-26T12:02:45.828Z,14.57
2023-03-26T12:05:19.321Z,11.02
2023-03-26T12:07:54.555Z,10.37
2023-03-26T12:10:27.092Z,11.02
2023-03-26T12:12:59.247Z,12.75
2023-03-26T12:15:30.887Z,12.18
2023-03-26T12:18:18.785Z,11.77
2023-03-26T12:20:49.437Z,10.48
2023-03-26T12:23:39.070Z,13.40
2023-03-26T12:26:16.558Z,10.45
2023-03-26T12:28:46.732Z,11.90
2023-03-26T12:31:18.381Z,13.35
2023-03-26T12:34:04.291Z,17.77
2023-03-26T12:36:36.039Z,10.85
2023-03-26T12:40:08.794Z,12.57
2023-03-26T12:44:48.005Z,11.55
2023-03-26T12:45:22.124Z,13.70
2023-03-26T12:48:01.799Z,10.65
2023-03-26T12:50:43.481Z,13.07
2023-03-26T12:53:33.005Z,11.20
2023-03-26T12:56:13.395Z,8.30
2023-03-26T12:58:59.424Z,10.25
2023-03-26T13:01:39.727Z,15.95
2023-03-26T13:04:20.012Z,9.88
2023-03-26T13:07:00.293Z,10.75
2023-03-26T13:09:52.879Z,11.18
2023-03-26T13:12:40.425Z,8.55
2023-03-26T13:15:20.062Z,6.80
2023-03-26T13:17:59.646Z,8.60
2023-03-26T13:20:37.371Z,7.90
2023-03-26T13:23:13.508Z,8.82
2023-03-26T13:25:49.627Z,10.75
2023-03-26T13:28:34.508Z,7.80
2023-03-26T13:31:11.820Z,9.38
2023-03-26T13:33:49.964Z,9.60
2023-03-26T13:36:25.006Z,11.05
2023-03-26T13:39:11.171Z,5.57
2023-03-26T13:41:53.145Z,11.07
2023-03-26T13:44:34.897Z,9.40
2023-03-26T13:47:10.229Z,8.95
2023-03-26T13:49:43.789Z,6.45
2023-03-26T13:52:16.740Z,11.00
2023-03-26T13:54:50.744Z,8.15
2023-03-26T13:57:26.219Z,9.95
2023-03-26T14:00:01.168Z,13.65
2023-03-26T14:02:36.939Z,11.20
2023-03-26T14:05:12.308Z,9.32
2023-03-26T14:07:45.945Z,7.80
2023-03-26T14:10:20.748Z,7.07
2023-03-26T14:12:57.311Z,9.98
2023-03-26T14:15:32.168Z,11.30
2023-03-26T14:18:08.212Z,8.52
2023-03-26T14:21:02.375Z,8.35
2023-03-26T14:23:50.576Z,9.07
2023-03-26T14:26:27.676Z,7.47
2023-03-26T14:29:29.211Z,10.40
2023-03-26T14:32:10.817Z,8.77
2023-03-26T14:35:00.400Z,8.38
2023-03-26T14:37:41.333Z,7.97
2023-03-26T14:40:49.014Z,9.70
2023-03-26T14:43:38.152Z,9.98
2023-03-26T14:46:22.259Z,7.93
2023-03-26T14:49:12.655Z,8.40
2023-03-26T14:51:58.642Z,9.27
2023-03-26T14:54:31.542Z,10.18
2023-03-26T14:57:22.772Z,12.10
2023-03-26T15:00:20.931Z,11.02
2023-03-26T15:03:18.912Z,9.98
2023-03-26T15:06:07.825Z,10.70
2023-03-26T15:09:10.432Z,6.15
2023-03-26T15:11:50.388Z,9.27
2023-03-26T15:15:06.338Z,12.18
2023-03-26T15:17:55.706Z,7.55
2023-03-26T15:21:09.179Z,6.50
2023-03-26T15:24:30.636Z,9.20
2023-03-26T15:27:26.817Z,10.15
2023-03-26T15:30:32.890Z,9.45
2023-03-26T15:33:43.842Z,9.40
2023-03-26T15:36:53.929Z,9.80
2023-03-26T15:40:00.022Z,10.88
2023-03-26T15:42:38.405Z,10.02
2023-03-26T15:45:20.290Z,7.63
2023-03-26T15:48:09.523Z,10.23
2023-03-26T15:50:50.833Z,10.30
2023-03-26T15:53:30.336Z,8.80
2023-03-26T15:56:14.249Z,8.32
2023-03-26T15:58:50.548Z,9.38
2023-03-26T16:01:32.622Z,9.40
2023-03-26T16:04:14.428Z,8.82
2023-03-26T16:06:55.457Z,8.60
2023-03-26T16:09:42.185Z,9.32
2023-03-26T16:12:32.582Z,8.25
2023-03-26T16:15:26.221Z,12.88
2023-03-26T16:18:24.368Z,9.25
2023-03-26T16:20:55.132Z,10.07
2023-03-26T16:23:30.306Z,11.38
2023-03-26T16:26:12.256Z,12.27
2023-03-26T16:29:07.847Z,8.38
2023-03-26T16:31:39.401Z,11.13
2023-03-26T16:34:30.208Z,13.02
2023-03-26T16:37:00.619Z,7.88
2023-03-26T16:39:43.721Z,7.53
2023-03-26T16:42:33.958Z,7.50
2023-03-26T16:45:20.929Z,6.22
2023-03-26T16:48:00.932Z,9.10
2023-03-26T16:50:43.331Z,9.50
2023-03-26T16:53:29.847Z,11.23
2023-03-26T16:56:00.972Z,7.82
2023-03-26T16:58:36.781Z,11.98
2023-03-26T17:01:17.174Z,19.55
2023-03-26T17:03:53.156Z,22.50
2023-03-26T17:06:56.782Z,17.25
2023-03-26T17:09:35.196Z,9.27
2023-03-26T17:12:13.761Z,9.45
2023-03-26T17:14:56.548Z,12.40
2023-03-26T17:17:39.369Z,8.50
2023-03-26T17:20:18.871Z,8.88
2023-03-26T17:22:54.085Z,9.10
2023-03-26T17:25:29.804Z,9.23
2023-03-26T17:28:15.502Z,10.73
2023-03-26T17:31:02.012Z,11.10
2023-03-26T17:33:36.896Z,9.88
2023-03-26T17:36:38.491Z,8.60
2023-03-26T17:39:22.166Z,12.30
2023-03-26T17:41:54.948Z,12.30
2023-03-26T17:44:38.999Z,10.18
2023-03-26T17:47:17.621Z,12.70
2023-03-26T17:49:54.232Z,15.80
2023-03-26T17:52:27.028Z,11.63
2023-03-26T17:54:58.128Z,12.45
2023-03-26T17:57:29.026Z,12.88
2023-03-26T18:00:00.183Z,13.88
2023-03-26T18:02:36.903Z,10.00
2023-03-26T18:05:10.685Z,12.07
2023-03-26T18:08:12.044Z,11.05
2023-03-26T18:11:08.407Z,11.82
2023-03-26T18:14:07.437Z,10.70
2023-03-26T18:16:40.245Z,11.05
2023-03-26T18:19:18.409Z,13.40
2023-03-26T18:21:50.772Z,10.38
2023-03-26T18:24:24.834Z,9.48
2023-03-26T18:26:58.436Z,12.20
2023-03-26T18:29:29.283Z,15.75
2023-03-26T18:32:00.611Z,11.00
2023-03-26T18:34:31.649Z,11.25
2023-03-26T18:37:18.902Z,10.10
2023-03-26T18:39:59.110Z,13.27
2023-03-26T18:42:29.409Z,11.88
2023-03-26T18:44:59.742Z,15.85
2023-03-26T18:47:31.592Z,13.23
2023-03-26T18:50:01.221Z,11.50
2023-03-26T18:52:33.226Z,12.00
2023-03-26T18:55:04.400Z,11.18
2023-03-26T18:57:32.955Z,14.18
2023-03-26T19:00:18.439Z,12.65
2023-03-26T19:02:49.900Z,13.20
2023-03-26T19:05:20.215Z,16.95
2023-03-26T19:07:52.378Z,11.32
2023-03-26T19:10:22.213Z,26.10
2023-03-26T19:13:02.040Z,31.80
2023-03-26T19:15:33.659Z,13.65
2023-03-26T19:18:07.400Z,14.55
2023-03-26T19:20:42.513Z,13.55
2023-03-26T19:23:16.010Z,12.23
2023-03-26T19:25:48.541Z,10.87
2023-03-26T19:28:20.938Z,13.43
2023-03-26T19:30:55.454Z,14.52
2023-03-26T19:33:24.923Z,18.58
2023-03-26T19:36:01.140Z,28.70
2023-03-26T19:38:40.103Z,13.30
2023-03-26T19:41:21.968Z,12.95
2023-03-26T19:43:51.773Z,14.57
2023-03-26T19:46:22.512Z,13.75
2023-03-26T19:48:54.203Z,13.95
2023-03-26T19:51:25.726Z,14.70
2023-03-26T19:53:58.617Z,21.40
2023-03-26T19:56:28.666Z,24.48
2023-03-26T19:58:58.375Z,22.52
2023-03-26T20:01:29.643Z,16.77
2023-03-26T20:04:01.560Z,15.07
2023-03-26T20:06:41.691Z,13.93
2023-03-26T20:09:12.859Z,20.13
2023-03-26T20:11:42.010Z,13.43
2023-03-26T20:14:15.212Z,13.90
2023-03-26T20:16:45.422Z,14.68
2023-03-26T20:19:15.459Z,16.58
2023-03-26T20:21:44.852Z,17.25
2023-03-26T20:24:17.955Z,17.88
2023-03-26T20:26:47.209Z,15.60
2023-03-26T20:29:16.504Z,15.77
2023-03-26T20:31:45.888Z,16.88
2023-03-26T20:34:17.942Z,15.25
2023-03-26T20:36:47.090Z,15.55
2023-03-26T20:39:16.941Z,22.15
2023-03-26T20:41:47.697Z,17.65
2023-03-26T20:44:18.387Z,17.90
2023-03-26T20:46:48.556Z,15.43
2023-03-26T20:49:17.879Z,15.82
2023-03-26T20:51:46.989Z,17.80
2023-03-26T20:54:19.202Z,13.93
2023-03-26T20:56:49.215Z,14.73
2023-03-26T20:59:22.367Z,17.02
2023-03-26T21:01:51.828Z,14.13
2023-03-26T21:04:20.574Z,20.50
2023-03-26T21:06:49.297Z,21.50
2023-03-26T21:09:23.736Z,14.90
2023-03-26T21:12:00.448Z,18.02
2023-03-26T21:14:33.887Z,17.30
2023-03-26T21:17:02.729Z,18.73
2023-03-26T21:19:31.834Z,17.50
2023-03-26T21:22:10.032Z,16.30
2023-03-26T21:24:51.470Z,19.70
2023-03-26T21:27:28.481Z,11.65
2023-03-26T21:29:58.278Z,20.40
2023-03-26T21:32:27.365Z,17.48
2023-03-26T21:34:59.280Z,11.27
2023-03-26T21:37:28.858Z,19.15
2023-03-26T21:39:59.808Z,16.50
2023-03-26T21:42:29.454Z,14.65
2023-03-26T21:44:58.464Z,15.02
2023-03-26T21:47:27.405Z,19.23
2023-03-26T21:49:56.321Z,16.15
2023-03-26T21:52:25.391Z,14.90
2023-03-26T21:54:54.480Z,14.05
2023-03-26T21:57:34.983Z,15.07
2023-03-26T22:00:12.972Z,16.88
2023-03-26T22:02:52.612Z,16.60
2023-03-26T22:05:25.313Z,15.52
2023-03-26T22:07:57.203Z,15.30
2023-03-26T22:10:25.889Z,15.90
2023-03-26T22:12:55.673Z,15.40
2023-03-26T22:15:26.772Z,12.45
2023-03-26T22:17:55.784Z,11.70
2023-03-26T22:20:25.278Z,14.63
2023-03-26T22:22:55.858Z,12.65
2023-03-26T22:25:25.028Z,21.98
2023-03-26T22:27:53.902Z,12.45
2023-03-26T22:30:23.703Z,21.10
2023-03-26T22:32:52.279Z,16.65
2023-03-26T22:35:21.147Z,15.73
2023-03-26T22:37:49.817Z,13.70
2023-03-26T22:40:18.378Z,14.45
2023-03-26T22:42:46.776Z,16.13
2023-03-26T22:45:15.197Z,15.98
2023-03-26T22:47:45.065Z,13.82
2023-03-26T22:50:13.754Z,15.77
2023-03-26T22:52:42.497Z,14.25
2023-03-26T22:55:11.830Z,10.93
2023-03-26T22:57:41.398Z,13.55
2023-03-26T23:00:16.406Z,14.80
2023-03-26T23:02:47.165Z,16.70
2023-03-26T23:05:17.649Z,20.75
2023-03-26T23:07:47.342Z,20.25
2023-03-26T23:10:15.777Z,9.27
2023-03-26T23:12:44.149Z,14.95
2023-03-26T23:15:13.213Z,12.85
2023-03-26T23:17:41.682Z,12.13
2023-03-26T23:20:14.992Z,12.13
2023-03-26T23:22:44.129Z,13.20
2023-03-26T23:25:13.552Z,13.40
2023-03-26T23:27:42.018Z,12.70
2023-03-26T23:30:11.848Z,10.70
2023-03-26T23:32:41.040Z,12.13
2023-03-26T23:35:11.508Z,9.13
2023-03-26T23:37:42.324Z,10.35
2023-03-26T23:40:13.861Z,11.48
2023-03-26T23:42:42.462Z,10.13
2023-03-26T23:45:12.349Z,12.10
2023-03-26T23:47:42.258Z,12.88
2023-03-26T23:50:13.033Z,9.82
2023-03-26T23:52:41.571Z,13.88
2023-03-26T23:55:10.443Z,11.75
2023-03-26T23:57:38.879Z,10.30
